createdAt,value
2023-04-25T00:00:37.864Z,0.00
2023-04-25T00:01:37.868Z,0.00
2023-04-25T00:02:38.072Z,0.00
2023-04-25T00:03:38.017Z,0.00
2023-04-25T00:04:38.258Z,0.00
2023-04-25T00:05:37.955Z,0.00
2023-04-25T00:06:37.877Z,0.00
2023-04-25T00:07:37.901Z,0.00
2023-04-25T00:08:37.921Z,0.00
2023-04-25T00:09:37.944Z,0.00
2023-04-25T00:10:37.975Z,0.00
2023-04-25T00:11:37.988Z,0.00
2023-04-25T00:12:37.990Z,0.00
2023-04-25T00:13:38.000Z,0.00
2023-04-25T00:14:38.234Z,0.00
2023-04-25T00:15:38.015Z,0.00
2023-04-25T00:16:38.079Z,0.00
2023-04-25T00:17:38.063Z,0.00
2023-04-25T00:18:38.258Z,0.00
2023-04-25T00:19:38.044Z,0.00
2023-04-25T00:20:38.059Z,0.00
2023-04-25T00:21:38.105Z,0.00
2023-04-25T00:22:38.116Z,0.00
2023-04-25T00:23:38.134Z,0.00
2023-04-25T00:24:38.142Z,0.00
2023-04-25T00:25:38.154Z,0.00
2023-04-25T00:26:38.179Z,0.00
2023-04-25T00:27:38.184Z,0.00
2023-04-25T00:28:38.187Z,0.00
2023-04-25T00:29:38.192Z,0.00
2023-04-25T00:30:38.216Z,0.00
2023-04-25T00:31:38.260Z,0.00
2023-04-25T00:32:38.393Z,0.00
2023-04-25T00:33:38.242Z,0.00
2023-04-25T00:34:38.281Z,0.00
2023-04-25T00:35:38.306Z,0.00
2023-04-25T00:36:38.310Z,0.00
2023-04-25T00:37:38.346Z,0.00
2023-04-25T00:38:38.342Z,0.00
2023-04-25T00:39:38.375Z,0.00
2023-04-25T00:40:38.366Z,0.00
2023-04-25T00:41:38.375Z,0.00
2023-04-25T00:42:38.404Z,0.00
2023-04-25T00:43:38.419Z,0.00
2023-04-25T00:44:38.440Z,0.00
2023-04-25T00:45:38.442Z,0.00
2023-04-25T00:46:38.507Z,0.00
2023-04-25T00:47:38.655Z,0.00
2023-04-25T00:48:38.463Z,0.00
2023-04-25T00:49:38.479Z,0.00
2023-04-25T00:50:38.498Z,0.00
2023-04-25T00:51:38.575Z,0.00
2023-04-25T00:52:38.528Z,0.00
2023-04-25T00:53:38.572Z,0.00
2023-04-25T00:54:38.572Z,0.00
2023-04-25T00:55:38.569Z,0.00
2023-04-25T00:56:38.576Z,0.00
2023-04-25T00:57:38.609Z,0.00
2023-04-25T00:58:38.611Z,0.00
2023-04-25T00:59:38.648Z,0.00
2023-04-25T01:00:38.693Z,0.00
2023-04-25T01:01:38.672Z,0.00
2023-04-25T01:02:38.834Z,0.00
2023-04-25T01:03:38.778Z,0.00
2023-04-25T01:04:38.691Z,0.00
2023-04-25T01:05:38.717Z,0.00
2023-04-25T01:06:38.721Z,0.00
2023-04-25T01:07:38.782Z,0.00
2023-04-25T01:08:38.751Z,0.00
2023-04-25T01:09:38.847Z,0.00
2023-04-25T01:10:38.764Z,0.00
2023-04-25T01:11:38.772Z,0.00
2023-04-25T01:12:38.823Z,0.00
2023-04-25T01:13:38.796Z,0.00
2023-04-25T01:14:38.806Z,0.00
2023-04-25T01:15:38.807Z,0.00
2023-04-25T01:16:38.933Z,0.00
2023-04-25T01:17:38.891Z,0.00
2023-04-25T01:18:38.835Z,0.00
2023-04-25T01:19:38.848Z,0.00
2023-04-25T01:20:38.864Z,0.00
2023-04-25T01:21:38.865Z,0.00
2023-04-25T01:22:38.898Z,0.00
2023-04-25T01:23:38.928Z,0.00
2023-04-25T01:24:38.941Z,0.00
2023-04-25T01:25:38.985Z,0.00
2023-04-25T01:26:38.981Z,0.00
2023-04-25T01:27:38.995Z,0.00
2023-04-25T01:28:39.015Z,0.00
2023-04-25T01:29:39.016Z,0.00
2023-04-25T01:30:39.023Z,0.00
2023-04-25T01:31:39.131Z,0.00
2023-04-25T01:32:39.200Z,0.00
2023-04-25T01:33:39.067Z,0.00
2023-04-25T01:34:39.066Z,0.00
2023-04-25T01:35:39.106Z,0.00
2023-04-25T01:36:39.063Z,0.00
2023-04-25T01:37:39.084Z,0.00
2023-04-25T01:38:39.112Z,0.00
2023-04-25T01:39:39.121Z,0.00
2023-04-25T01:40:39.120Z,0.00
2023-04-25T01:41:39.182Z,0.00
2023-04-25T01:42:39.131Z,0.00
2023-04-25T01:43:39.140Z,0.00
2023-04-25T01:44:39.161Z,0.00
2023-04-25T01:45:39.209Z,0.00
2023-04-25T01:46:39.231Z,0.00
2023-04-25T01:47:39.222Z,0.00
2023-04-25T01:48:39.198Z,0.00
2023-04-25T01:49:39.227Z,0.00
2023-04-25T01:50:39.267Z,0.00
2023-04-25T01:51:39.249Z,0.00
2023-04-25T01:52:39.261Z,0.00
2023-04-25T01:53:39.277Z,0.00
2023-04-25T01:54:39.310Z,0.00
2023-04-25T01:55:39.314Z,0.00
2023-04-25T01:56:39.332Z,0.00
2023-04-25T01:57:39.360Z,0.00
2023-04-25T01:58:39.357Z,0.00
2023-04-25T01:59:39.386Z,0.00
2023-04-25T02:00:39.362Z,0.00
2023-04-25T02:01:39.485Z,0.00
2023-04-25T02:02:39.704Z,0.00
2023-04-25T02:03:39.782Z,0.00
2023-04-25T02:04:39.665Z,0.00
2023-04-25T02:05:39.465Z,0.00
2023-04-25T02:06:39.480Z,0.00
2023-04-25T02:07:39.480Z,0.00
2023-04-25T02:08:39.504Z,0.00
2023-04-25T02:09:39.523Z,0.00
2023-04-25T02:10:39.544Z,0.00
2023-04-25T02:11:39.565Z,0.00
2023-04-25T02:12:39.582Z,0.00
2023-04-25T02:13:39.629Z,0.00
2023-04-25T02:14:39.628Z,0.00
2023-04-25T02:15:39.708Z,0.00
2023-04-25T02:16:39.751Z,0.00
2023-04-25T02:17:39.695Z,0.00
2023-04-25T02:18:39.673Z,0.00
2023-04-25T02:19:39.684Z,0.00
2023-04-25T02:20:39.714Z,0.00
2023-04-25T02:21:39.733Z,0.00
2023-04-25T02:22:39.744Z,0.00
2023-04-25T02:23:39.775Z,0.00
2023-04-25T02:24:39.791Z,0.00
2023-04-25T02:25:39.818Z,0.00
2023-04-25T02:26:39.823Z,0.00
2023-04-25T02:27:39.819Z,0.00
2023-04-25T02:28:39.848Z,0.00
2023-04-25T02:29:39.893Z,0.00
2023-04-25T02:30:39.872Z,0.00
2023-04-25T02:31:39.939Z,0.00
2023-04-25T02:32:39.941Z,0.00
2023-04-25T02:33:39.908Z,0.00
2023-04-25T02:34:39.912Z,0.00
2023-04-25T02:35:39.939Z,0.00
2023-04-25T02:36:39.955Z,0.00
2023-04-25T02:37:39.971Z,0.00
2023-04-25T02:38:40.058Z,0.00
2023-04-25T02:39:39.985Z,0.00
2023-04-25T02:40:39.989Z,0.00
2023-04-25T02:41:40.017Z,0.00
2023-04-25T02:42:40.014Z,0.00
2023-04-25T02:43:40.031Z,0.00
2023-04-25T02:44:40.067Z,0.00
2023-04-25T02:45:40.103Z,0.00
2023-04-25T02:46:40.180Z,0.00
2023-04-25T02:47:40.140Z,0.00
2023-04-25T02:48:40.126Z,0.00
2023-04-25T02:49:40.136Z,0.00
2023-04-25T02:50:40.168Z,0.00
2023-04-25T02:51:40.168Z,0.00
2023-04-25T02:52:40.174Z,0.00
2023-04-25T02:53:40.189Z,0.00
2023-04-25T02:54:40.208Z,0.00
2023-04-25T02:55:40.233Z,0.00
2023-04-25T02:56:40.217Z,0.00
2023-04-25T02:57:40.242Z,0.00
2023-04-25T02:58:40.236Z,0.00
2023-04-25T02:59:40.464Z,0.00
2023-04-25T03:00:40.509Z,0.00
2023-04-25T03:01:40.270Z,0.00
2023-04-25T03:02:40.442Z,0.00
2023-04-25T03:03:40.319Z,0.00
2023-04-25T03:04:40.410Z,0.00
2023-04-25T03:05:40.287Z,0.00
2023-04-25T03:06:40.314Z,0.00
2023-04-25T03:07:40.330Z,0.00
2023-04-25T03:08:40.329Z,0.00
2023-04-25T03:09:40.351Z,0.00
2023-04-25T03:10:40.347Z,0.00
2023-04-25T03:11:40.383Z,0.00
2023-04-25T03:12:40.362Z,0.00
2023-04-25T03:13:40.387Z,0.00
2023-04-25T03:14:40.396Z,0.00
2023-04-25T03:15:40.420Z,0.00
2023-04-25T03:16:40.542Z,0.00
2023-04-25T03:17:40.510Z,0.00
2023-04-25T03:18:40.418Z,0.00
2023-04-25T03:19:40.428Z,0.00
2023-04-25T03:20:40.448Z,0.00
2023-04-25T03:21:40.519Z,0.00
2023-04-25T03:22:40.481Z,0.00
2023-04-25T03:23:40.478Z,0.00
2023-04-25T03:24:40.483Z,0.00
2023-04-25T03:25:40.495Z,0.00
2023-04-25T03:26:40.495Z,0.00
2023-04-25T03:27:40.534Z,0.00
2023-04-25T03:28:40.532Z,0.00
2023-04-25T03:29:40.555Z,0.00
2023-04-25T03:30:40.564Z,0.00
2023-04-25T03:31:40.597Z,0.00
2023-04-25T03:32:40.608Z,0.00
2023-04-25T03:33:40.589Z,0.00
2023-04-25T03:34:40.568Z,0.00
2023-04-25T03:35:40.575Z,0.00
2023-04-25T03:36:41.737Z,0.00
2023-04-25T03:37:40.621Z,0.00
2023-04-25T03:38:40.619Z,0.00
2023-04-25T03:39:40.625Z,0.00
2023-04-25T03:40:40.633Z,0.00
2023-04-25T03:41:40.653Z,0.00
2023-04-25T03:42:40.697Z,1.00
2023-04-25T03:43:40.666Z,1.00
2023-04-25T03:44:40.668Z,1.00
2023-04-25T03:45:40.710Z,1.00
2023-04-25T03:46:40.719Z,1.00
2023-04-25T03:47:40.788Z,1.00
2023-04-25T03:48:40.720Z,2.00
2023-04-25T03:49:40.754Z,2.00
2023-04-25T03:50:40.758Z,3.00
2023-04-25T03:51:40.770Z,3.00
2023-04-25T03:52:40.776Z,3.00
2023-04-25T03:53:40.805Z,4.00
2023-04-25T03:54:40.839Z,4.00
2023-04-25T03:55:43.022Z,4.00
2023-04-25T03:56:40.820Z,5.00
2023-04-25T03:57:40.829Z,5.00
2023-04-25T03:58:40.847Z,5.00
2023-04-25T03:59:40.849Z,6.00
2023-04-25T04:00:40.887Z,7.00
2023-04-25T04:01:40.906Z,8.00
2023-04-25T04:02:43.089Z,10.00
2023-04-25T04:03:41.094Z,11.00
2023-04-25T04:04:41.213Z,13.00
2023-04-25T04:05:41.037Z,13.00
2023-04-25T04:06:40.973Z,14.00
2023-04-25T04:07:40.986Z,15.00
2023-04-25T04:08:41.001Z,15.00
2023-04-25T04:09:41.031Z,16.00
2023-04-25T04:10:41.046Z,16.00
2023-04-25T04:11:41.047Z,16.00
2023-04-25T04:12:41.061Z,17.00
2023-04-25T04:13:41.075Z,20.00
2023-04-25T04:14:41.105Z,22.00
2023-04-25T04:15:41.125Z,24.00
2023-04-25T04:16:41.130Z,28.00
2023-04-25T04:17:41.171Z,32.00
2023-04-25T04:18:41.215Z,35.00
2023-04-25T04:19:41.197Z,37.00
2023-04-25T04:20:41.194Z,41.00
2023-04-25T04:21:41.223Z,47.00
2023-04-25T04:22:41.183Z,54.00
2023-04-25T04:23:41.213Z,64.00
2023-04-25T04:24:41.247Z,74.00
2023-04-25T04:25:41.202Z,86.00
2023-04-25T04:26:41.212Z,96.00
2023-04-25T04:27:41.229Z,106.00
2023-04-25T04:28:41.252Z,123.00
2023-04-25T04:29:41.280Z,141.00
2023-04-25T04:30:41.288Z,146.00
2023-04-25T04:31:41.347Z,142.00
2023-04-25T04:32:41.343Z,136.00
2023-04-25T04:33:41.380Z,137.00
2023-04-25T04:34:41.354Z,144.00
2023-04-25T04:35:41.373Z,150.00
2023-04-25T04:36:41.448Z,156.00
2023-04-25T04:37:41.396Z,171.00
2023-04-25T04:38:42.007Z,172.00
2023-04-25T04:39:41.414Z,163.00
2023-04-25T04:40:41.403Z,158.00
2023-04-25T04:41:41.401Z,162.00
2023-04-25T04:42:41.413Z,166.00
2023-04-25T04:43:41.417Z,169.00
2023-04-25T04:44:41.450Z,168.00
2023-04-25T04:45:41.494Z,163.00
2023-04-25T04:46:41.511Z,165.00
2023-04-25T04:47:41.513Z,178.00
2023-04-25T04:48:41.480Z,195.00
2023-04-25T04:49:41.498Z,213.00
2023-04-25T04:50:41.516Z,222.00
2023-04-25T04:51:41.529Z,239.00
2023-04-25T04:52:41.529Z,256.00
2023-04-25T04:53:41.572Z,261.00
2023-04-25T04:54:41.541Z,263.00
2023-04-25T04:55:41.556Z,250.00
2023-04-25T04:56:41.541Z,244.00
2023-04-25T04:57:41.544Z,250.00
2023-04-25T04:58:41.583Z,251.00
2023-04-25T04:59:41.609Z,234.00
2023-04-25T05:02:07.521Z,225.00
2023-04-25T05:03:07.715Z,214.00
2023-04-25T05:04:07.670Z,224.00
2023-04-25T05:05:07.544Z,239.00
2023-04-25T05:06:07.542Z,271.00
2023-04-25T05:07:07.545Z,293.00
2023-04-25T05:08:07.578Z,319.00
2023-04-25T05:09:07.641Z,378.00
2023-04-25T05:10:07.622Z,422.00
2023-04-25T05:11:07.608Z,434.00
2023-04-25T05:12:07.633Z,426.00
2023-04-25T05:13:07.667Z,449.00
2023-04-25T05:14:07.653Z,471.00
2023-04-25T05:15:08.768Z,500.00
2023-04-25T05:16:07.720Z,537.00
2023-04-25T05:17:07.674Z,578.00
2023-04-25T05:18:07.725Z,614.00
2023-04-25T05:19:07.691Z,640.00
2023-04-25T05:20:07.690Z,650.00
2023-04-25T05:21:07.716Z,657.00
2023-04-25T05:22:07.708Z,645.00
2023-04-25T05:23:07.695Z,640.00
2023-04-25T05:24:07.706Z,652.00
2023-04-25T05:25:07.765Z,699.00
2023-04-25T05:26:07.731Z,757.00
2023-04-25T05:27:07.744Z,798.00
2023-04-25T05:28:07.782Z,823.00
2023-04-25T05:29:07.815Z,865.00
2023-04-25T05:30:07.842Z,919.00
2023-04-25T05:31:07.818Z,958.00
2023-04-25T05:32:07.862Z,979.00
2023-04-25T05:33:08.010Z,1004.00
2023-04-25T05:34:07.861Z,990.00
2023-04-25T05:35:07.988Z,931.00
2023-04-25T05:36:07.871Z,904.00
2023-04-25T05:37:07.898Z,896.00
2023-04-25T05:38:07.893Z,884.00
2023-04-25T05:39:07.880Z,873.00
2023-04-25T05:40:07.932Z,893.00
2023-04-25T05:41:07.942Z,942.00
2023-04-25T05:42:07.914Z,1038.00
2023-04-25T05:43:07.934Z,1162.00
2023-04-25T05:44:07.926Z,1272.00
2023-04-25T05:45:07.946Z,1314.00
2023-04-25T05:46:07.994Z,1343.00
2023-04-25T05:47:07.986Z,1418.00
2023-04-25T05:48:08.070Z,1499.00
2023-04-25T05:49:08.063Z,1575.00
2023-04-25T05:50:08.017Z,1631.00
2023-04-25T05:51:08.009Z,1672.00
2023-04-25T05:52:07.998Z,1662.00
2023-04-25T05:53:07.984Z,1668.00
2023-04-25T05:54:08.002Z,1672.00
2023-04-25T05:55:07.986Z,1694.00
2023-04-25T05:56:08.015Z,1736.00
2023-04-25T05:57:08.069Z,1749.00
2023-04-25T05:58:08.098Z,1783.00
2023-04-25T05:59:08.047Z,1824.00
2023-04-25T06:00:08.675Z,1877.00
2023-04-25T06:01:08.035Z,1918.00
2023-04-25T06:02:08.088Z,1928.00
2023-04-25T06:03:08.477Z,1946.00
2023-04-25T06:04:08.289Z,1953.00
2023-04-25T06:05:08.325Z,1984.00
2023-04-25T06:06:08.350Z,2050.00
2023-04-25T06:07:08.129Z,2085.00
2023-04-25T06:08:08.152Z,2089.00
2023-04-25T06:09:08.165Z,2076.00
2023-04-25T06:10:08.145Z,2029.00
2023-04-25T06:11:09.158Z,1977.00
2023-04-25T06:12:08.184Z,1896.00
2023-04-25T06:13:08.243Z,1814.00
2023-04-25T06:14:08.195Z,1733.00
2023-04-25T06:15:20.155Z,1743.00
2023-04-25T06:16:08.268Z,1795.00
2023-04-25T06:17:08.228Z,1803.00
2023-04-25T06:18:08.265Z,1849.00
2023-04-25T06:19:08.244Z,1798.00
2023-04-25T06:20:08.264Z,1898.00
2023-04-25T06:21:08.294Z,1975.00
2023-04-25T06:22:08.319Z,2029.00
2023-04-25T06:23:08.334Z,2131.00
2023-04-25T06:24:08.322Z,2246.00
2023-04-25T06:25:08.354Z,2400.00
2023-04-25T06:26:08.388Z,2544.00
2023-04-25T06:27:08.400Z,2604.00
2023-04-25T06:28:08.661Z,2585.00
2023-04-25T06:29:08.451Z,2649.00
2023-04-25T06:30:08.412Z,2689.00
2023-04-25T06:31:08.463Z,2770.00
2023-04-25T06:32:08.444Z,2804.00
2023-04-25T06:33:08.543Z,2771.00
2023-04-25T06:34:08.489Z,2772.00
2023-04-25T06:35:08.496Z,2779.00
2023-04-25T06:36:08.510Z,2754.00
2023-04-25T06:37:08.539Z,2669.00
2023-04-25T06:38:08.560Z,2648.00
2023-04-25T06:39:08.540Z,2599.00
2023-04-25T06:40:08.570Z,2437.00
2023-04-25T06:41:08.552Z,2312.00
2023-04-25T06:42:08.545Z,2088.00
2023-04-25T06:43:08.573Z,2070.00
2023-04-25T06:44:08.562Z,2208.00
2023-04-25T06:45:08.625Z,2204.00
2023-04-25T06:46:08.588Z,2370.00
2023-04-25T06:47:08.695Z,2011.00
2023-04-25T06:48:08.673Z,1662.00
2023-04-25T06:49:08.620Z,1650.00
2023-04-25T06:50:08.628Z,1780.00
2023-04-25T06:51:08.657Z,2451.00
2023-04-25T06:52:08.643Z,2723.00
2023-04-25T06:53:08.662Z,2627.00
2023-04-25T06:54:08.651Z,2781.00
2023-04-25T06:55:08.670Z,2997.00
2023-04-25T06:56:08.694Z,2905.00
2023-04-25T06:57:08.716Z,2845.00
2023-04-25T06:58:08.794Z,2777.00
2023-04-25T06:59:08.744Z,2648.00
2023-04-25T07:00:08.732Z,2740.00
2023-04-25T07:01:08.819Z,2781.00
2023-04-25T07:02:08.786Z,2717.00
2023-04-25T07:03:08.936Z,2750.00
2023-04-25T07:04:09.029Z,2784.00
2023-04-25T07:05:08.796Z,3037.00
2023-04-25T07:06:08.812Z,3229.00
2023-04-25T07:07:08.843Z,3196.00
2023-04-25T07:08:08.833Z,3189.00
2023-04-25T07:09:08.875Z,3232.00
2023-04-25T07:10:08.862Z,3580.00
2023-04-25T07:11:08.885Z,3556.00
2023-04-25T07:12:08.934Z,3525.00
2023-04-25T07:13:08.903Z,3456.00
2023-04-25T07:14:08.964Z,3431.00
2023-04-25T07:15:08.912Z,3275.00
2023-04-25T07:16:08.941Z,3097.00
2023-04-25T07:17:08.967Z,2875.00
2023-04-25T07:18:08.992Z,2702.00
2023-04-25T07:19:09.010Z,2748.00
2023-04-25T07:20:08.953Z,2721.00
2023-04-25T07:21:08.977Z,2661.00
2023-04-25T07:22:09.007Z,2672.00
2023-04-25T07:23:09.022Z,2579.00
2023-04-25T07:24:09.068Z,2157.00
2023-04-25T07:25:09.094Z,2139.00
2023-04-25T07:26:09.122Z,2511.00
2023-04-25T07:27:09.108Z,2418.00
2023-04-25T07:28:09.146Z,2426.00
2023-04-25T07:29:09.171Z,2342.00
2023-04-25T07:30:09.185Z,2405.00
2023-04-25T07:31:09.216Z,2211.00
2023-04-25T07:32:09.288Z,2126.00
2023-04-25T07:33:10.498Z,2028.00
2023-04-25T07:34:14.255Z,1935.00
2023-04-25T07:35:09.227Z,1888.00
2023-04-25T07:36:09.242Z,1835.00
2023-04-25T07:37:10.264Z,1746.00
2023-04-25T07:38:09.278Z,1728.00
2023-04-25T07:39:09.305Z,1708.00
2023-04-25T07:40:09.373Z,1720.00
2023-04-25T07:41:09.346Z,1738.00
2023-04-25T07:42:09.380Z,1723.00
2023-04-25T07:43:09.385Z,1690.00
2023-04-25T07:44:09.386Z,1641.00
2023-04-25T07:45:09.407Z,1638.00
2023-04-25T07:46:09.605Z,1672.00
2023-04-25T07:47:09.473Z,1687.00
2023-04-25T07:48:09.466Z,1677.00
2023-04-25T07:49:09.475Z,1660.00
2023-04-25T07:50:09.485Z,1678.00
2023-04-25T07:51:09.515Z,1659.00
2023-04-25T07:52:09.551Z,1642.00
2023-04-25T07:53:09.559Z,1686.00
2023-04-25T07:54:09.581Z,1666.00
2023-04-25T07:55:09.616Z,1650.00
2023-04-25T07:56:09.632Z,1704.00
2023-04-25T07:57:09.648Z,1763.00
2023-04-25T07:58:09.695Z,1830.00
2023-04-25T07:59:09.676Z,1875.00
2023-04-25T08:00:09.690Z,1911.00
2023-04-25T08:01:09.712Z,1956.00
2023-04-25T08:02:09.777Z,1951.00
2023-04-25T08:03:09.890Z,1925.00
2023-04-25T08:04:09.866Z,1873.00
2023-04-25T08:05:09.890Z,1841.00
2023-04-25T08:06:10.024Z,1871.00
2023-04-25T08:07:09.839Z,1815.00
2023-04-25T08:08:10.201Z,1795.00
2023-04-25T08:09:09.882Z,1805.00
2023-04-25T08:10:09.873Z,1774.00
2023-04-25T08:11:09.854Z,1742.00
2023-04-25T08:12:09.852Z,1776.00
2023-04-25T08:13:09.831Z,1855.00
2023-04-25T08:14:09.857Z,1997.00
2023-04-25T08:15:09.896Z,2223.00
2023-04-25T08:16:09.949Z,2468.00
2023-04-25T08:17:09.933Z,2678.00
2023-04-25T08:18:09.997Z,2847.00
2023-04-25T08:19:09.956Z,2978.00
2023-04-25T08:20:09.961Z,2994.00
2023-04-25T08:21:10.015Z,3004.00
2023-04-25T08:22:10.002Z,3047.00
2023-04-25T08:23:09.982Z,3032.00
2023-04-25T08:24:10.002Z,2892.00
2023-04-25T08:25:10.022Z,2792.00
2023-04-25T08:26:10.036Z,2722.00
2023-04-25T08:27:10.015Z,2596.00
2023-04-25T08:28:10.017Z,2442.00
2023-04-25T08:29:10.044Z,2321.00
2023-04-25T08:30:10.028Z,2299.00
2023-04-25T08:31:10.041Z,2293.00
2023-04-25T08:32:10.053Z,2254.00
2023-04-25T08:33:10.130Z,2176.00
2023-04-25T08:34:10.107Z,2058.00
2023-04-25T08:35:10.089Z,1950.00
2023-04-25T08:36:10.073Z,1830.00
2023-04-25T08:37:10.140Z,1729.00
2023-04-25T08:38:10.128Z,1687.00
2023-04-25T08:39:10.130Z,1651.00
2023-04-25T08:40:10.098Z,1633.00
2023-04-25T08:41:10.190Z,1639.00
2023-04-25T08:42:10.124Z,1668.00
2023-04-25T08:43:10.118Z,1711.00
2023-04-25T08:44:10.139Z,1752.00
2023-04-25T08:45:10.177Z,1768.00
2023-04-25T08:46:10.236Z,1778.00
2023-04-25T08:47:10.357Z,1827.00
2023-04-25T08:48:10.264Z,1806.00
2023-04-25T08:49:10.281Z,1739.00
2023-04-25T08:50:10.242Z,1707.00
2023-04-25T08:52:10.262Z,1742.00
2023-04-25T08:53:10.540Z,1797.00
2023-04-25T08:54:19.761Z,1857.00
2023-04-25T08:55:10.283Z,1975.00
2023-04-25T08:56:10.273Z,2115.00
2023-04-25T08:57:10.284Z,2309.00
2023-04-25T08:58:10.305Z,2699.00
2023-04-25T08:59:10.360Z,2708.00
2023-04-25T09:00:10.349Z,2731.00
2023-04-25T09:01:10.426Z,2708.00
2023-04-25T09:02:10.455Z,2682.00
2023-04-25T09:03:10.562Z,2536.00
2023-04-25T09:04:10.593Z,2604.00
2023-04-25T09:05:10.404Z,2738.00
2023-04-25T09:06:10.425Z,2910.00
2023-04-25T09:07:10.399Z,3057.00
2023-04-25T09:08:10.411Z,3010.00
2023-04-25T09:09:10.646Z,3112.00
2023-04-25T09:10:10.396Z,3256.00
2023-04-25T09:11:10.472Z,3409.00
2023-04-25T09:12:10.442Z,3642.00
2023-04-25T09:13:10.464Z,3904.00
2023-04-25T09:14:10.453Z,4206.00
2023-04-25T09:15:10.476Z,4871.00
2023-04-25T09:16:10.470Z,5236.00
2023-04-25T09:17:10.468Z,5773.00
2023-04-25T09:18:10.524Z,6011.00
2023-04-25T09:19:10.448Z,5554.00
2023-04-25T09:20:10.462Z,5213.00
2023-04-25T09:21:14.388Z,5495.00
2023-04-25T09:22:10.490Z,5670.00
2023-04-25T09:23:10.536Z,5607.00
2023-04-25T09:24:10.519Z,5469.00
2023-04-25T09:25:10.568Z,5664.00
2023-04-25T09:26:10.574Z,5815.00
2023-04-25T09:27:10.574Z,5625.00
2023-04-25T09:28:10.573Z,5283.00
2023-04-25T09:29:10.618Z,4924.00
2023-04-25T09:30:10.624Z,4996.00
2023-04-25T09:31:10.674Z,4740.00
2023-04-25T09:32:10.649Z,4356.00
2023-04-25T09:33:10.743Z,4549.00
2023-04-25T09:34:10.682Z,5134.00
2023-04-25T09:35:10.694Z,5438.00
2023-04-25T09:36:10.680Z,4725.00
2023-04-25T09:37:10.681Z,3510.00
2023-04-25T09:38:10.724Z,2834.00
2023-04-25T09:39:10.673Z,2471.00
2023-04-25T09:40:10.672Z,2204.00
2023-04-25T09:41:10.731Z,2353.00
2023-04-25T09:42:10.686Z,2789.00
2023-04-25T09:43:10.716Z,3257.00
2023-04-25T09:44:10.738Z,3423.00
2023-04-25T09:45:10.668Z,3486.00
2023-04-25T09:46:10.744Z,3193.00
2023-04-25T09:47:10.657Z,3037.00
2023-04-25T09:48:10.803Z,3529.00
2023-04-25T09:49:10.641Z,4279.00
2023-04-25T09:50:10.626Z,5035.00
2023-04-25T09:51:10.706Z,5523.00
2023-04-25T09:52:10.701Z,5674.00
2023-04-25T09:53:11.223Z,5486.00
2023-04-25T09:54:10.700Z,5194.00
2023-04-25T09:55:10.701Z,4801.00
2023-04-25T09:56:10.706Z,4285.00
2023-04-25T09:57:10.742Z,3655.00
2023-04-25T09:58:10.686Z,3246.00
2023-04-25T09:59:11.180Z,2837.00
2023-04-25T10:00:10.737Z,2624.00
2023-04-25T10:01:10.828Z,2610.00
2023-04-25T10:02:10.802Z,2601.00
2023-04-25T10:03:10.863Z,2725.00
2023-04-25T10:04:11.861Z,3095.00
2023-04-25T10:05:10.866Z,3220.00
2023-04-25T10:06:10.828Z,3274.00
2023-04-25T10:07:10.833Z,3683.00
2023-04-25T10:08:11.686Z,4405.00
2023-04-25T10:09:10.862Z,4821.00
2023-04-25T10:10:10.851Z,5235.00
2023-04-25T10:11:10.871Z,5527.00
2023-04-25T10:12:10.909Z,5628.00
2023-04-25T10:13:10.941Z,5523.00
2023-04-25T10:14:10.905Z,5372.00
2023-04-25T10:15:10.960Z,5216.00
2023-04-25T10:16:11.021Z,5072.00
2023-04-25T10:17:10.970Z,4875.00
2023-04-25T10:18:11.018Z,4688.00
2023-04-25T10:19:11.020Z,4510.00
2023-04-25T10:20:11.007Z,4332.00
2023-04-25T10:21:10.985Z,4310.00
2023-04-25T10:22:11.000Z,4584.00
2023-04-25T10:23:11.030Z,4962.00
2023-04-25T10:24:11.035Z,5454.00
2023-04-25T10:25:11.059Z,5836.00
2023-04-25T10:26:11.087Z,6122.00
2023-04-25T10:27:11.098Z,6078.00
2023-04-25T10:28:11.157Z,5455.00
2023-04-25T10:29:11.323Z,5316.00
2023-04-25T10:30:11.187Z,5617.00
2023-04-25T10:31:11.271Z,5545.00
2023-04-25T10:32:11.194Z,5921.00
2023-04-25T10:33:11.132Z,5768.00
2023-04-25T10:34:13.755Z,5646.00
2023-04-25T10:35:11.187Z,5455.00
2023-04-25T10:36:11.239Z,5805.00
2023-04-25T10:37:11.228Z,5814.00
2023-04-25T10:38:11.255Z,5600.00
2023-04-25T10:39:11.246Z,5751.00
2023-04-25T10:40:11.247Z,5353.00
2023-04-25T10:41:11.311Z,5060.00
2023-04-25T10:42:11.234Z,5285.00
2023-04-25T10:43:11.719Z,5544.00
2023-04-25T10:44:11.274Z,6125.00
2023-04-25T10:45:12.289Z,6379.00
2023-04-25T10:46:11.377Z,6907.00
2023-04-25T10:47:11.474Z,6788.00
2023-04-25T10:48:11.388Z,6991.00
2023-04-25T10:49:12.573Z,7767.00
2023-04-25T10:50:11.352Z,7723.00
2023-04-25T10:51:11.413Z,7619.00
2023-04-25T10:52:11.381Z,7339.00
2023-04-25T10:53:11.395Z,6784.00
2023-04-25T10:54:11.418Z,6848.00
2023-04-25T10:55:11.450Z,7161.00
2023-04-25T10:56:12.518Z,6902.00
2023-04-25T10:57:11.487Z,6380.00
2023-04-25T10:58:11.491Z,5570.00
2023-04-25T10:59:11.571Z,4850.00
2023-04-25T11:00:11.558Z,4032.00
2023-04-25T11:01:11.923Z,3695.00
2023-04-25T11:02:11.767Z,3719.00
2023-04-25T11:03:11.736Z,3875.00
2023-04-25T11:04:12.834Z,4274.00
2023-04-25T11:05:11.695Z,4569.00
2023-04-25T11:06:11.634Z,4709.00
2023-04-25T11:07:11.633Z,5048.00
2023-04-25T11:08:11.624Z,5626.00
2023-04-25T11:09:11.614Z,5969.00
2023-04-25T11:10:11.629Z,5507.00
2023-04-25T11:11:13.267Z,5083.00
2023-04-25T11:12:11.664Z,4625.00
2023-04-25T11:13:11.687Z,4107.00
2023-04-25T11:14:11.700Z,3637.00
2023-04-25T11:15:11.720Z,3386.00
2023-04-25T11:16:13.113Z,3602.00
2023-04-25T11:17:11.870Z,4476.00
2023-04-25T11:18:11.821Z,5138.00
2023-04-25T11:19:11.814Z,5194.00
2023-04-25T11:20:11.840Z,4588.00
2023-04-25T11:21:11.867Z,4015.00
2023-04-25T11:22:11.878Z,4041.00
2023-04-25T11:23:11.916Z,5090.00
2023-04-25T11:24:11.946Z,6198.00
2023-04-25T11:25:12.004Z,6518.00
2023-04-25T11:26:12.002Z,6321.00
2023-04-25T11:27:12.004Z,6196.00
2023-04-25T11:28:11.976Z,6233.00
2023-04-25T11:29:12.782Z,6314.00
2023-04-25T11:30:12.051Z,6337.00
2023-04-25T11:31:12.038Z,6641.00
2023-04-25T11:32:12.109Z,6923.00
2023-04-25T11:33:12.095Z,7452.00
2023-04-25T11:34:12.061Z,7402.00
2023-04-25T11:35:12.052Z,7028.00
2023-04-25T11:36:12.110Z,6458.00
2023-04-25T11:37:12.105Z,5928.00
2023-04-25T11:38:12.122Z,5676.00
2023-04-25T11:39:12.114Z,5735.00
2023-04-25T11:40:12.181Z,5693.00
2023-04-25T11:41:12.134Z,5455.00
2023-04-25T11:42:13.802Z,5350.00
2023-04-25T11:43:12.114Z,5049.00
2023-04-25T11:44:12.098Z,5154.00
2023-04-25T11:45:12.113Z,5229.00
2023-04-25T11:46:12.139Z,5496.00
2023-04-25T11:47:12.114Z,5475.00
2023-04-25T11:48:12.141Z,5060.00
2023-04-25T11:49:12.262Z,5449.00
2023-04-25T11:50:12.246Z,6125.00
2023-04-25T11:51:12.160Z,6819.00
2023-04-25T11:52:12.324Z,7163.00
2023-04-25T11:53:12.173Z,6797.00
2023-04-25T11:54:12.161Z,6298.00
2023-04-25T11:55:12.149Z,6392.00
2023-04-25T11:56:12.202Z,6626.00
2023-04-25T11:57:12.171Z,6907.00
2023-04-25T11:58:12.200Z,7313.00
2023-04-25T11:59:13.015Z,7199.00
2023-04-25T12:00:12.683Z,6837.00
2023-04-25T12:01:12.257Z,6989.00
2023-04-25T12:02:12.364Z,7823.00
2023-04-25T12:03:12.404Z,8180.00
2023-04-25T12:04:12.487Z,8217.00
2023-04-25T12:05:30.520Z,8279.00
2023-04-25T12:06:12.370Z,8242.00
2023-04-25T12:07:12.296Z,8150.00
2023-04-25T12:08:12.341Z,8045.00
2023-04-25T12:09:12.341Z,7641.00
2023-04-25T12:10:12.320Z,7306.00
2023-04-25T12:11:12.351Z,7534.00
2023-04-25T12:12:12.334Z,7344.00
2023-04-25T12:13:12.398Z,6856.00
2023-04-25T12:14:12.372Z,7054.00
2023-04-25T12:15:12.397Z,7290.00
2023-04-25T12:16:12.448Z,7091.00
2023-04-25T12:17:12.438Z,6691.00
2023-04-25T12:18:12.521Z,6653.00
2023-04-25T12:19:12.484Z,6885.00
2023-04-25T12:20:12.541Z,6585.00
2023-04-25T12:21:12.508Z,6265.00
2023-04-25T12:22:12.511Z,5797.00
2023-04-25T12:23:12.518Z,5159.00
2023-04-25T12:24:12.490Z,4051.00
2023-04-25T12:25:12.487Z,3081.00
2023-04-25T12:26:12.510Z,2733.00
2023-04-25T12:27:12.502Z,3136.00
2023-04-25T12:28:12.503Z,3381.00
2023-04-25T12:29:12.494Z,3558.00
2023-04-25T12:30:12.516Z,3382.00
2023-04-25T12:31:12.556Z,2989.00
2023-04-25T12:32:12.528Z,2750.00
2023-04-25T12:33:12.638Z,2760.00
2023-04-25T12:34:12.586Z,2817.00